Time;durP1;ratioP1;P1;durP2;ratioP2;P2;SDS_P1;SDS_P2;PMS_P1;PMS_P2;Temp;Humidity;BMP_temperature;BMP_pressure;BME280_temperature;BME280_humidity;BME280_pressure;Samples;Min_cycle;Max_cycle;Signal;HPM_P1;HPM_P2
2022/11/28 00:00:24;;;;;;;21.90;10.25;;;2.90;99.90;;;;;;4929151;28;20034;-84
2022/11/28 00:02:49;;;;;;;19.38;9.88;;;2.90;99.90;;;;;;4951811;28;20092;-83
2022/11/28 00:05:15;;;;;;;24.30;10.32;;;2.80;99.90;;;;;;4918479;28;20034;-83
2022/11/28 00:07:41;;;;;;;22.83;11.15;;;2.90;99.90;;;;;;4931576;28;20041;-84
2022/11/28 00:10:07;;;;;;;21.95;11.10;;;2.90;99.90;;;;;;4930257;28;20082;-83
2022/11/28 00:12:36;;;;;;;20.45;10.35;;;2.80;99.90;;;;;;4955361;28;20507;-84
2022/11/28 00:15:03;;;;;;;18.52;10.73;;;2.80;99.90;;;;;;4966894;28;20045;-83
2022/11/28 00:17:29;;;;;;;25.38;11.30;;;2.80;99.90;;;;;;4944179;28;20577;-84
2022/11/28 00:19:55;;;;;;;26.17;12.30;;;2.80;99.90;;;;;;4952198;28;20044;-84
2022/11/28 00:22:21;;;;;;;20.83;10.88;;;2.80;99.90;;;;;;4956013;28;20041;-83
2022/11/28 00:24:46;;;;;;;19.45;10.13;;;2.80;99.90;;;;;;4941127;28;20496;-82
2022/11/28 00:27:12;;;;;;;19.73;10.98;;;2.80;99.90;;;;;;4954149;28;20500;-83
2022/11/28 00:29:38;;;;;;;21.02;10.35;;;2.80;99.90;;;;;;4953233;28;20042;-84
2022/11/28 00:32:04;;;;;;;20.38;10.45;;;2.80;99.90;;;;;;4922072;28;20042;-83
2022/11/28 00:34:30;;;;;;;19.92;10.00;;;2.80;99.90;;;;;;4946941;28;20085;-84
2022/11/28 00:36:56;;;;;;;22.42;10.73;;;2.80;99.90;;;;;;4948612;28;20046;-83
2022/11/28 00:39:22;;;;;;;23.55;12.85;;;2.80;99.90;;;;;;4957318;28;20085;-84
2022/11/28 00:41:48;;;;;;;24.52;11.13;;;2.70;99.90;;;;;;4931530;28;20498;-84
2022/11/28 00:44:14;;;;;;;21.50;11.65;;;2.70;99.90;;;;;;4936595;28;20093;-83
2022/11/28 00:46:40;;;;;;;22.40;11.25;;;2.70;99.90;;;;;;4959585;28;20143;-84
2022/11/28 00:49:06;;;;;;;23.55;11.57;;;2.70;99.90;;;;;;4955314;28;20047;-83
2022/11/28 00:51:33;;;;;;;21.25;11.75;;;2.80;99.90;;;;;;4934120;28;20038;-82
2022/11/28 00:54:01;;;;;;;22.55;11.48;;;2.80;99.90;;;;;;4939395;28;20046;-84
2022/11/28 00:56:31;;;;;;;22.17;12.25;;;2.80;99.90;;;;;;4935061;29;20039;-83
2022/11/28 00:58:57;;;;;;;21.88;10.98;;;2.80;99.90;;;;;;4960138;28;20030;-83
2022/11/28 01:01:27;;;;;;;22.25;12.25;;;2.80;99.90;;;;;;4954558;28;20030;-84
2022/11/28 01:03:54;;;;;;;21.83;11.32;;;2.80;99.90;;;;;;4954866;28;20043;-84
2022/11/28 01:06:30;;;;;;;23.17;11.18;;;2.80;99.90;;;;;;4973442;28;20122;-83
2022/11/28 01:08:58;;;;;;;22.45;11.80;;;2.80;99.90;;;;;;4941859;28;20054;-83
2022/11/28 01:11:26;;;;;;;22.83;11.55;;;2.80;99.90;;;;;;4944337;28;20054;-84
2022/11/28 01:13:57;;;;;;;21.13;11.38;;;2.80;99.90;;;;;;4957253;28;20034;-83
2022/11/28 01:16:23;;;;;;;22.10;11.00;;;2.80;99.90;;;;;;4953720;29;20043;-83
2022/11/28 01:18:50;;;;;;;21.88;10.93;;;2.80;99.90;;;;;;4961413;28;20022;-83
2022/11/28 01:21:16;;;;;;;23.75;10.77;;;2.70;99.90;;;;;;4971197;28;20030;-83
2022/11/28 01:23:42;;;;;;;22.35;10.98;;;2.70;99.90;;;;;;4929628;28;20027;-83
2022/11/28 01:26:10;;;;;;;23.85;11.25;;;2.70;99.90;;;;;;4957649;28;20035;-83
2022/11/28 01:28:37;;;;;;;20.35;10.73;;;2.70;99.90;;;;;;4954158;29;20038;-84
2022/11/28 01:31:07;;;;;;;21.02;11.35;;;2.70;99.90;;;;;;4952897;28;20062;-84
2022/11/28 01:33:33;;;;;;;25.17;11.45;;;2.60;99.90;;;;;;4941479;28;20039;-83
2022/11/28 01:36:00;;;;;;;21.13;10.07;;;2.60;99.90;;;;;;4956386;28;20098;-83
2022/11/28 01:38:27;;;;;;;26.30;10.73;;;2.60;99.90;;;;;;4957551;28;20035;-84
2022/11/28 01:40:53;;;;;;;21.38;11.32;;;2.70;99.90;;;;;;4959696;28;20042;-83
2022/11/28 01:43:20;;;;;;;25.02;10.27;;;2.70;99.90;;;;;;4940038;28;20101;-84
2022/11/28 01:45:46;;;;;;;18.83;10.25;;;2.70;99.90;;;;;;4958534;28;20034;-83
2022/11/28 01:48:16;;;;;;;21.80;9.68;;;2.60;99.90;;;;;;4966713;28;20647;-84
2022/11/28 01:50:45;;;;;;;20.15;9.60;;;2.60;99.90;;;;;;4975915;28;20053;-84
2022/11/28 01:53:11;;;;;;;17.00;9.38;;;2.60;99.90;;;;;;4976221;28;20038;-84
2022/11/28 01:55:45;;;;;;;19.20;9.45;;;2.60;99.90;;;;;;4959722;28;20062;-85
2022/11/28 01:58:11;;;;;;;17.48;9.20;;;2.50;99.90;;;;;;4957976;28;20026;-85
2022/11/28 02:00:37;;;;;;;20.38;9.05;;;2.40;99.90;;;;;;4960154;28;20118;-85
2022/11/28 02:03:21;;;;;;;17.55;8.90;;;2.40;99.90;;;;;;4973928;28;20121;-84
2022/11/28 02:05:50;;;;;;;20.30;8.70;;;2.40;99.90;;;;;;4984463;28;20048;-84
2022/11/28 02:08:16;;;;;;;16.77;9.02;;;2.40;99.90;;;;;;4948585;28;20063;-84
2022/11/28 02:11:05;;;;;;;20.33;9.60;;;2.40;99.90;;;;;;4973708;28;20080;-84
2022/11/28 02:13:38;;;;;;;17.02;8.75;;;2.30;99.90;;;;;;4991030;28;20139;-84
2022/11/28 02:16:10;;;;;;;19.55;8.93;;;2.30;99.90;;;;;;4980048;28;20403;-84
2022/11/28 02:18:42;;;;;;;15.50;8.68;;;2.30;99.90;;;;;;4991986;28;20483;-84
2022/11/28 02:21:26;;;;;;;18.15;8.27;;;2.30;99.90;;;;;;4995573;28;20057;-84
2022/11/28 02:24:23;;;;;;;14.88;7.45;;;2.30;99.90;;;;;;4992759;28;20819;-85
2022/11/28 02:27:16;;;;;;;14.57;7.35;;;2.20;99.90;;;;;;4979489;28;20030;-84
2022/11/28 02:30:04;;;;;;;14.93;7.57;;;2.20;99.90;;;;;;4989648;28;20113;-83
2022/11/28 02:32:58;;;;;;;17.23;7.22;;;2.20;99.90;;;;;;5003558;28;20027;-84
2022/11/28 02:35:36;;;;;;;15.38;7.03;;;2.30;99.90;;;;;;4976070;28;20118;-83
2022/11/28 02:38:45;;;;;;;14.20;7.40;;;2.30;99.90;;;;;;4994011;28;20538;-83
2022/11/28 02:41:35;;;;;;;14.35;7.50;;;2.30;99.90;;;;;;4979913;28;20141;-84
2022/11/28 02:44:37;;;;;;;14.50;7.22;;;2.30;99.90;;;;;;4974919;28;20061;-84
2022/11/28 02:47:10;;;;;;;13.35;7.57;;;2.30;99.90;;;;;;4986738;28;20750;-84
2022/11/28 02:49:45;;;;;;;14.60;7.70;;;2.30;99.90;;;;;;4956068;28;20043;-83
2022/11/28 02:52:15;;;;;;;;;;;2.30;99.90;;;;;;4956062;28;20038;-83
2022/11/28 02:54:43;;;;;;;12.80;7.18;;;2.40;99.90;;;;;;4962131;28;19914;-84
2022/11/28 02:57:09;;;;;;;12.73;7.57;;;2.40;99.90;;;;;;4955549;28;20034;-83
2022/11/28 02:59:37;;;;;;;12.05;7.03;;;2.40;99.90;;;;;;4920365;29;20118;-84
2022/11/28 03:02:23;;;;;;;13.18;6.60;;;2.40;99.90;;;;;;4944509;28;20035;-83
2022/11/28 03:05:18;;;;;;;12.73;6.80;;;2.50;99.90;;;;;;4932641;28;20050;-83
2022/11/28 03:07:59;;;;;;;13.10;6.95;;;2.50;99.90;;;;;;4968819;28;20043;-83
2022/11/28 03:10:29;;;;;;;12.98;6.45;;;2.40;99.90;;;;;;4923869;28;20030;-83
2022/11/28 03:13:31;;;;;;;12.90;6.85;;;2.40;99.90;;;;;;4939534;28;20048;-83
2022/11/28 03:16:00;;;;;;;11.93;6.40;;;2.40;99.90;;;;;;4918490;28;20093;-83
2022/11/28 03:18:35;;;;;;;12.20;6.97;;;2.40;99.90;;;;;;4944925;28;20031;-84
2022/11/28 03:21:04;;;;;;;10.80;6.28;;;2.30;99.90;;;;;;4971053;28;20041;-83
2022/11/28 03:23:45;;;;;;;12.27;6.07;;;2.30;99.90;;;;;;4935479;28;20535;-84
2022/11/28 03:26:37;;;;;;;9.95;5.72;;;2.40;99.90;;;;;;4944728;28;20038;-84
2022/11/28 03:29:10;;;;;;;11.65;6.03;;;2.30;99.90;;;;;;4936281;29;20043;-83
2022/11/28 03:31:44;;;;;;;10.85;6.28;;;2.40;99.90;;;;;;4945204;29;20399;-83
2022/11/28 03:34:15;;;;;;;9.00;5.50;;;2.30;99.90;;;;;;4938844;29;20031;-84
2022/11/28 03:36:46;;;;;;;7.68;4.68;;;2.30;99.90;;;;;;4929576;29;20043;-85
2022/11/28 03:39:16;;;;;;;9.88;4.65;;;2.30;99.90;;;;;;4951240;28;20475;-84
2022/11/28 03:42:06;;;;;;;7.97;4.30;;;2.30;99.90;;;;;;4954364;28;20679;-83
2022/11/28 03:44:48;;;;;;;6.78;4.43;;;2.20;99.90;;;;;;4925630;28;20145;-84
2022/11/28 03:47:14;;;;;;;8.90;4.45;;;2.10;99.90;;;;;;4949569;28;20106;-84
2022/11/28 03:49:46;;;;;;;9.50;5.40;;;2.10;99.90;;;;;;4969987;28;20074;-83
2022/11/28 03:52:23;;;;;;;8.10;5.18;;;2.10;99.90;;;;;;4988999;28;20093;-84
2022/11/28 03:54:54;;;;;;;8.65;4.82;;;2.10;99.90;;;;;;4990551;28;20141;-83
2022/11/28 03:57:24;;;;;;;7.75;4.63;;;2.10;99.90;;;;;;4974246;28;20042;-83
2022/11/28 03:59:52;;;;;;;6.40;4.45;;;2.10;99.90;;;;;;4981386;28;20026;-84
2022/11/28 04:02:27;;;;;;;8.48;4.60;;;2.10;99.90;;;;;;4973413;28;20030;-84
2022/11/28 04:05:13;;;;;;;7.90;4.55;;;2.20;99.90;;;;;;4989040;28;20030;-85
2022/11/28 04:07:49;;;;;;;10.00;4.72;;;2.20;99.90;;;;;;4974054;28;20044;-84
2022/11/28 04:10:26;;;;;;;8.57;4.75;;;2.20;99.90;;;;;;4991250;28;20039;-84
2022/11/28 04:12:59;;;;;;;8.57;4.75;;;2.30;99.90;;;;;;4974138;28;20037;-83
2022/11/28 04:15:47;;;;;;;10.02;5.38;;;2.30;99.90;;;;;;4973373;28;20035;-84
2022/11/28 04:18:55;;;;;;;7.00;4.35;;;2.30;99.90;;;;;;4975115;28;20142;-83
2022/11/28 04:21:41;;;;;;;6.63;4.30;;;2.40;99.90;;;;;;4990048;28;20034;-84
2022/11/28 04:24:12;;;;;;;8.05;4.78;;;2.30;99.90;;;;;;4965812;28;20042;-83
2022/11/28 04:26:47;;;;;;;7.35;3.92;;;2.30;99.90;;;;;;4927299;28;20050;-84
2022/11/28 04:29:17;;;;;;;6.10;3.90;;;2.30;99.90;;;;;;4956309;28;21113;-83
2022/11/28 04:31:44;;;;;;;7.88;4.10;;;2.30;99.90;;;;;;4945963;28;20030;-83
2022/11/28 04:34:15;;;;;;;8.32;4.65;;;2.40;99.90;;;;;;4965308;28;20038;-83
2022/11/28 04:36:43;;;;;;;6.90;4.28;;;2.40;99.90;;;;;;4973725;28;20038;-84
2022/11/28 04:39:20;;;;;;;6.95;4.40;;;2.40;99.90;;;;;;4971990;28;20379;-83
2022/11/28 04:41:56;;;;;;;7.00;4.55;;;2.40;99.90;;;;;;4973338;28;20049;-84
2022/11/28 04:44:35;;;;;;;6.82;4.22;;;2.30;99.90;;;;;;4957308;28;20034;-83
2022/11/28 04:47:01;;;;;;;9.40;4.68;;;2.40;99.90;;;;;;4974311;28;20039;-84
2022/11/28 04:49:28;;;;;;;8.15;4.53;;;2.30;99.90;;;;;;4989867;28;20053;-83
2022/11/28 04:52:09;;;;;;;7.72;4.68;;;2.30;99.90;;;;;;4974536;28;20128;-84
2022/11/28 04:55:00;;;;;;;7.60;4.47;;;2.30;99.90;;;;;;4980206;28;20089;-82
2022/11/28 04:57:37;;;;;;;8.00;4.53;;;2.30;99.90;;;;;;4995374;28;20044;-83
2022/11/28 05:00:07;;;;;;;6.65;4.68;;;2.30;99.90;;;;;;4989356;28;20026;-83
2022/11/28 05:02:35;;;;;;;8.48;4.72;;;2.30;99.90;;;;;;4973554;28;20034;-83
2022/11/28 05:05:08;;;;;;;8.30;4.22;;;2.30;99.90;;;;;;4992279;28;20594;-84
2022/11/28 05:07:33;;;;;;;6.50;4.53;;;2.40;99.90;;;;;;4984486;28;20026;-84
2022/11/28 05:09:59;;;;;;;8.25;4.22;;;2.40;99.90;;;;;;4969319;28;20034;-85
2022/11/28 05:12:25;;;;;;;7.47;4.60;;;2.40;99.90;;;;;;4981037;28;20045;-84
2022/11/28 05:14:51;;;;;;;8.07;4.77;;;2.30;99.90;;;;;;4940990;28;20050;-83
2022/11/28 05:17:16;;;;;;;10.25;4.85;;;2.30;99.90;;;;;;4974045;28;20458;-84
2022/11/28 05:19:42;;;;;;;7.45;4.43;;;2.30;99.90;;;;;;4945162;28;20030;-84
2022/11/28 05:22:08;;;;;;;6.82;4.63;;;2.30;99.90;;;;;;4955040;28;20122;-84
2022/11/28 05:24:34;;;;;;;9.98;5.30;;;2.40;99.90;;;;;;4934448;28;20077;-82
2022/11/28 05:27:00;;;;;;;7.95;4.80;;;2.30;99.90;;;;;;4987267;28;20049;-82
2022/11/28 05:29:26;;;;;;;7.95;4.90;;;2.30;99.90;;;;;;4976152;28;20041;-83
2022/11/28 05:31:52;;;;;;;8.15;4.47;;;2.30;99.90;;;;;;4975645;28;20651;-84
2022/11/28 05:34:17;;;;;;;7.82;4.72;;;2.30;99.90;;;;;;4959486;28;20038;-84
2022/11/28 05:36:43;;;;;;;7.75;4.72;;;2.30;99.90;;;;;;4960820;28;20034;-84
2022/11/28 05:39:09;;;;;;;8.88;5.28;;;2.30;99.90;;;;;;4936661;28;20492;-84
2022/11/28 05:41:34;;;;;;;8.77;4.72;;;2.30;99.90;;;;;;4970485;28;20034;-84
2022/11/28 05:44:00;;;;;;;9.95;5.38;;;2.30;99.90;;;;;;4959684;28;20492;-83
2022/11/28 05:46:27;;;;;;;7.72;4.57;;;2.40;99.90;;;;;;4992262;28;20125;-84
2022/11/28 05:48:53;;;;;;;7.18;4.93;;;2.40;99.90;;;;;;5005337;28;20042;-83
2022/11/28 05:51:19;;;;;;;11.45;5.50;;;2.40;99.90;;;;;;4990184;28;20034;-83
2022/11/28 05:53:45;;;;;;;10.63;5.70;;;2.40;99.90;;;;;;4992111;28;20487;-84
2022/11/28 05:56:16;;;;;;;9.68;5.07;;;2.40;99.90;;;;;;4976011;28;20045;-84
2022/11/28 05:58:43;;;;;;;11.15;5.63;;;2.40;99.90;;;;;;4987134;28;20030;-83
2022/11/28 06:01:12;;;;;;;8.80;5.40;;;2.40;99.90;;;;;;4987974;28;20077;-84
2022/11/28 06:03:39;;;;;;;8.75;4.78;;;2.40;99.90;;;;;;4986005;28;20026;-85
2022/11/28 06:06:13;;;;;;;10.32;5.80;;;2.40;99.90;;;;;;4991465;28;20125;-84
2022/11/28 06:08:39;;;;;;;12.10;6.22;;;2.40;99.90;;;;;;4976619;28;20499;-85
2022/11/28 06:11:05;;;;;;;9.18;5.07;;;2.50;99.90;;;;;;4991336;28;20034;-84
2022/11/28 06:13:31;;;;;;;13.65;5.60;;;2.40;99.90;;;;;;4991089;28;20038;-84
2022/11/28 06:15:57;;;;;;;11.63;5.93;;;2.50;99.90;;;;;;4968891;28;20038;-84
2022/11/28 06:18:23;;;;;;;11.07;5.88;;;2.40;99.90;;;;;;4976263;28;20041;-84
2022/11/28 06:20:49;;;;;;;10.68;6.22;;;2.40;99.90;;;;;;4974870;28;20026;-84
2022/11/28 06:23:15;;;;;;;10.48;6.05;;;2.40;99.90;;;;;;4975387;28;20279;-84
2022/11/28 06:25:41;;;;;;;11.95;5.78;;;2.40;99.90;;;;;;4988298;28;20043;-85
2022/11/28 06:28:07;;;;;;;10.85;5.80;;;2.50;99.90;;;;;;4975836;28;20477;-84
2022/11/28 06:30:33;;;;;;;10.05;5.68;;;2.50;99.90;;;;;;4997114;28;20157;-85
2022/11/28 06:32:58;;;;;;;9.73;5.55;;;2.50;99.90;;;;;;4959332;28;20030;-84
2022/11/28 06:35:24;;;;;;;11.57;6.45;;;2.50;99.90;;;;;;4975405;28;20062;-84
2022/11/28 06:37:50;;;;;;;11.00;6.40;;;2.50;99.90;;;;;;4993551;28;20049;-84
2022/11/28 06:40:16;;;;;;;12.82;6.70;;;2.50;99.90;;;;;;4958975;28;20065;-84
2022/11/28 06:42:41;;;;;;;12.15;6.97;;;2.50;99.90;;;;;;4991208;28;20047;-84
2022/11/28 06:45:08;;;;;;;12.77;6.63;;;2.50;99.90;;;;;;4981363;28;20046;-84
2022/11/28 06:47:34;;;;;;;12.05;6.38;;;2.50;99.90;;;;;;4991491;28;20546;-84
2022/11/28 06:50:00;;;;;;;12.68;7.13;;;2.50;99.90;;;;;;4990798;28;20038;-84
2022/11/28 06:52:26;;;;;;;11.90;6.05;;;2.50;99.90;;;;;;5004460;28;20402;-84
2022/11/28 06:54:52;;;;;;;12.35;6.93;;;2.40;99.90;;;;;;4974987;28;20686;-84
2022/11/28 06:57:17;;;;;;;10.75;6.13;;;2.40;99.90;;;;;;4928492;28;20041;-85
2022/11/28 06:59:43;;;;;;;11.43;6.93;;;2.40;99.90;;;;;;5004983;28;20030;-85
2022/11/28 07:02:10;;;;;;;11.00;6.13;;;2.50;99.90;;;;;;4939462;28;20034;-85
2022/11/28 07:04:36;;;;;;;14.27;7.18;;;2.50;99.90;;;;;;4957625;28;20101;-85
2022/11/28 07:07:02;;;;;;;10.93;6.60;;;2.40;99.90;;;;;;4988198;28;20030;-85
2022/11/28 07:09:28;;;;;;;9.90;5.80;;;2.50;99.90;;;;;;4954489;28;20093;-85
2022/11/28 07:11:54;;;;;;;11.13;6.22;;;2.50;99.90;;;;;;4967904;28;20034;-85
2022/11/28 07:14:20;;;;;;;11.70;6.78;;;2.40;99.90;;;;;;4975118;28;20081;-84
2022/11/28 07:16:52;;;;;;;13.00;6.68;;;2.40;99.90;;;;;;4964425;28;20030;-84
2022/11/28 07:19:21;;;;;;;11.98;6.70;;;2.40;99.90;;;;;;5006169;28;20116;-84
2022/11/28 07:21:49;;;;;;;13.23;7.18;;;2.40;99.90;;;;;;4942950;28;20081;-85
2022/11/28 07:24:18;;;;;;;13.55;7.50;;;2.40;99.90;;;;;;4989940;28;20022;-85
2022/11/28 07:26:44;;;;;;;12.98;7.00;;;2.40;99.90;;;;;;4989710;28;20030;-83
2022/11/28 07:29:15;;;;;;;14.07;6.68;;;2.50;99.90;;;;;;4958181;28;20107;-84
2022/11/28 07:31:41;;;;;;;13.02;7.53;;;2.40;99.90;;;;;;4958117;28;20030;-85
2022/11/28 07:34:09;;;;;;;10.75;6.22;;;2.40;99.90;;;;;;4944539;28;20030;-84
2022/11/28 07:36:36;;;;;;;14.75;7.38;;;2.40;99.90;;;;;;4990034;28;20058;-84
2022/11/28 07:39:07;;;;;;;12.63;7.22;;;2.40;99.90;;;;;;4990338;28;20058;-84
2022/11/28 07:41:33;;;;;;;12.68;7.53;;;2.40;99.90;;;;;;4972645;28;20125;-85
2022/11/28 07:44:00;;;;;;;15.52;7.50;;;2.40;99.90;;;;;;4965192;28;20106;-84
2022/11/28 07:46:28;;;;;;;13.57;7.60;;;2.40;99.90;;;;;;4984821;28;20038;-85
2022/11/28 07:48:54;;;;;;;13.32;7.43;;;2.40;99.90;;;;;;5007847;28;20034;-84
2022/11/28 07:51:26;;;;;;;16.52;7.80;;;2.40;99.90;;;;;;4981807;28;20041;-85
2022/11/28 07:53:52;;;;;;;16.08;7.82;;;2.30;99.90;;;;;;4984410;28;20518;-85
2022/11/28 07:56:21;;;;;;;12.88;7.00;;;2.30;99.90;;;;;;4978080;28;20070;-83
2022/11/28 07:58:47;;;;;;;12.43;7.35;;;2.30;99.90;;;;;;4990001;28;20053;-84
2022/11/28 08:01:19;;;;;;;14.43;7.60;;;2.30;99.90;;;;;;4973311;28;20080;-84
2022/11/28 08:03:45;;;;;;;13.27;7.82;;;2.30;99.90;;;;;;4962492;28;20034;-84
2022/11/28 08:06:12;;;;;;;13.88;8.63;;;2.40;99.90;;;;;;4989423;28;20120;-84
2022/11/28 08:08:38;;;;;;;14.77;8.00;;;2.40;99.90;;;;;;4990246;28;20034;-85
2022/11/28 08:11:07;;;;;;;16.17;8.40;;;2.50;99.90;;;;;;4939296;28;20082;-84
2022/11/28 08:13:33;;;;;;;13.98;7.50;;;2.40;99.90;;;;;;4973607;28;20034;-84
2022/11/28 08:16:07;;;;;;;14.02;7.80;;;2.50;99.90;;;;;;4982664;28;20039;-85
2022/11/28 08:18:34;;;;;;;13.82;7.35;;;2.50;99.90;;;;;;4983730;28;20040;-85
2022/11/28 08:21:11;;;;;;;15.48;8.32;;;2.50;99.90;;;;;;4957503;28;20068;-85
2022/11/28 08:23:38;;;;;;;14.27;7.93;;;2.50;99.90;;;;;;5006485;28;20030;-85
2022/11/28 08:26:06;;;;;;;15.75;8.95;;;2.50;99.90;;;;;;4978498;28;20576;-84
2022/11/28 08:28:33;;;;;;;14.55;8.55;;;2.50;99.90;;;;;;4991330;28;20117;-84
2022/11/28 08:31:00;;;;;;;15.52;8.05;;;2.50;99.90;;;;;;4968398;28;20048;-84
2022/11/28 08:33:26;;;;;;;16.38;7.47;;;2.50;99.90;;;;;;4948048;28;20049;-84
2022/11/28 08:35:52;;;;;;;17.42;7.68;;;2.60;99.90;;;;;;4957443;28;20038;-84
2022/11/28 08:38:18;;;;;;;15.38;8.07;;;2.60;99.90;;;;;;4926971;28;20629;-85
2022/11/28 08:40:45;;;;;;;13.82;8.65;;;2.60;99.90;;;;;;4974699;28;20054;-84
2022/11/28 08:43:12;;;;;;;14.00;7.90;;;2.60;99.90;;;;;;4969497;28;20093;-84
2022/11/28 08:45:37;;;;;;;15.73;7.90;;;2.70;99.90;;;;;;4963990;28;20157;-85
2022/11/28 08:48:04;;;;;;;15.45;8.50;;;2.70;99.90;;;;;;4987087;28;20049;-84
2022/11/28 08:50:30;;;;;;;13.38;7.95;;;2.70;99.90;;;;;;4993880;28;20475;-84
2022/11/28 08:52:56;;;;;;;15.70;8.75;;;2.70;99.90;;;;;;4992060;28;20065;-84
2022/11/28 08:55:22;;;;;;;14.18;7.45;;;2.70;99.90;;;;;;4994014;28;20038;-85
2022/11/28 08:57:47;;;;;;;14.82;7.43;;;2.70;99.90;;;;;;4961385;28;20034;-85
2022/11/28 09:00:14;;;;;;;16.40;7.32;;;2.70;99.90;;;;;;4993073;28;20567;-84
2022/11/28 09:02:41;;;;;;;12.30;6.60;;;2.70;99.90;;;;;;4987530;28;20702;-85
2022/11/28 09:05:08;;;;;;;14.25;7.82;;;2.70;99.90;;;;;;4977747;28;20037;-83
2022/11/28 09:07:33;;;;;;;14.75;7.65;;;2.80;99.90;;;;;;4968540;28;20165;-84
2022/11/28 09:09:59;;;;;;;11.40;7.32;;;2.80;99.90;;;;;;4977175;28;20132;-83
2022/11/28 09:12:25;;;;;;;15.95;7.70;;;2.80;99.90;;;;;;4987702;28;20034;-83
2022/11/28 09:14:51;;;;;;;13.90;7.60;;;2.80;99.90;;;;;;4931049;28;20030;-83
2022/11/28 09:17:16;;;;;;;13.75;7.47;;;2.90;99.90;;;;;;4953993;28;20045;-84
2022/11/28 09:19:42;;;;;;;13.00;6.82;;;2.90;99.90;;;;;;4975458;28;20045;-83
2022/11/28 09:22:08;;;;;;;13.63;7.57;;;2.90;99.90;;;;;;4952895;28;20030;-83
2022/11/28 09:24:34;;;;;;;12.73;7.03;;;3.00;99.90;;;;;;4988413;28;20030;-83
2022/11/28 09:27:01;;;;;;;12.68;7.05;;;3.00;99.90;;;;;;4941285;28;20042;-83
2022/11/28 09:29:28;;;;;;;11.05;7.18;;;3.10;99.90;;;;;;4972673;28;20363;-84
2022/11/28 09:31:53;;;;;;;11.63;6.78;;;3.10;99.90;;;;;;5000299;28;20779;-84
2022/11/28 09:34:20;;;;;;;11.18;7.05;;;3.10;99.90;;;;;;4924881;28;20070;-83
2022/11/28 09:36:46;;;;;;;13.05;7.32;;;3.10;99.90;;;;;;5002282;28;20089;-83
2022/11/28 09:39:11;;;;;;;14.25;6.82;;;3.10;99.90;;;;;;4957401;28;20034;-84
2022/11/28 09:41:40;;;;;;;12.63;6.78;;;3.10;99.90;;;;;;4940720;28;20088;-84
2022/11/28 09:44:32;;;;;;;10.25;6.13;;;3.20;99.90;;;;;;4999108;28;20129;-84
2022/11/28 09:47:00;;;;;;;11.27;6.90;;;3.20;99.90;;;;;;4986150;28;20030;-85
2022/11/28 09:49:35;;;;;;;10.55;6.15;;;3.20;99.90;;;;;;4920829;28;20048;-84
2022/11/28 09:52:33;;;;;;;12.82;7.25;;;3.10;99.90;;;;;;4962218;28;20073;-83
2022/11/28 09:55:13;;;;;;;11.27;6.78;;;3.20;99.90;;;;;;4939564;28;20064;-84
2022/11/28 09:57:44;;;;;;;13.77;6.13;;;3.20;99.90;;;;;;4925968;28;20031;-84
2022/11/28 10:00:22;;;;;;;12.10;6.32;;;3.30;99.90;;;;;;4969192;28;20396;-84
2022/11/28 10:03:18;;;;;;;11.35;6.88;;;3.30;99.90;;;;;;4953474;28;20051;-84
2022/11/28 10:06:05;;;;;;;15.10;7.50;;;3.40;99.90;;;;;;4935838;28;20042;-84
2022/11/28 10:08:49;;;;;;;13.85;6.78;;;3.40;99.90;;;;;;4953720;28;20294;-83
2022/11/28 10:11:36;;;;;;;12.15;6.88;;;3.40;99.90;;;;;;4953017;28;20027;-85
2022/11/28 10:14:24;;;;;;;11.48;6.55;;;3.40;99.90;;;;;;4936095;28;20041;-83
2022/11/28 10:17:16;;;;;;;13.25;6.63;;;3.50;99.90;;;;;;4966916;28;20480;-84
2022/11/28 10:20:04;;;;;;;13.13;6.35;;;3.40;99.90;;;;;;4937557;28;20042;-83
2022/11/28 10:22:44;;;;;;;10.55;6.85;;;3.40;99.90;;;;;;4939671;28;20031;-83
2022/11/28 10:25:21;;;;;;;12.18;6.95;;;3.30;99.90;;;;;;4948939;28;20026;-85
2022/11/28 10:27:49;;;;;;;11.32;6.65;;;3.40;99.90;;;;;;4957468;28;20038;-84
2022/11/28 10:30:22;;;;;;;11.85;7.00;;;3.40;99.90;;;;;;4938327;28;20031;-83
2022/11/28 10:33:07;;;;;;;11.65;6.35;;;3.40;99.90;;;;;;4945757;29;20696;-84
2022/11/28 10:35:49;;;;;;;13.85;7.20;;;3.50;99.90;;;;;;4944613;28;20027;-83
2022/11/28 10:38:16;;;;;;;11.68;7.35;;;3.50;99.90;;;;;;4966925;28;20031;-83
2022/11/28 10:41:02;;;;;;;12.07;7.15;;;3.50;99.90;;;;;;4961803;28;20589;-83
2022/11/28 10:43:33;;;;;;;10.23;6.47;;;3.60;99.90;;;;;;4935611;28;20046;-84
2022/11/28 10:46:02;;;;;;;11.55;6.75;;;3.60;99.90;;;;;;4938843;28;20035;-84
2022/11/28 10:48:39;;;;;;;11.27;6.47;;;3.60;99.90;;;;;;4991372;28;20499;-84
2022/11/28 10:51:26;;;;;;;11.30;6.50;;;3.60;99.90;;;;;;4980323;28;21321;-84
2022/11/28 10:54:17;;;;;;;11.55;6.28;;;3.70;99.90;;;;;;4973453;28;20034;-85
2022/11/28 10:57:08;;;;;;;10.60;6.35;;;3.70;99.90;;;;;;4999874;28;20026;-84
2022/11/28 10:59:56;;;;;;;11.75;7.03;;;3.80;99.90;;;;;;4990118;28;20031;-83
2022/11/28 11:02:50;;;;;;;10.18;6.43;;;3.80;99.90;;;;;;4991696;28;20806;-83
2022/11/28 11:05:24;;;;;;;9.45;6.18;;;3.90;99.90;;;;;;4959292;28;20030;-83
2022/11/28 11:07:56;;;;;;;12.05;6.80;;;3.90;99.90;;;;;;4972656;28;20737;-83
2022/11/28 11:10:27;;;;;;;10.02;6.10;;;4.00;99.90;;;;;;4987451;28;20041;-83
2022/11/28 11:12:53;;;;;;;11.65;6.55;;;4.00;99.90;;;;;;5003062;28;20322;-83
2022/11/28 11:15:21;;;;;;;11.73;6.68;;;4.00;99.90;;;;;;4985471;28;20122;-83
2022/11/28 11:17:49;;;;;;;9.82;6.15;;;4.00;99.90;;;;;;4987510;28;20023;-83
2022/11/28 11:20:37;;;;;;;8.35;5.25;;;4.10;99.90;;;;;;4987216;28;20029;-84
2022/11/28 11:23:15;;;;;;;11.45;6.40;;;4.10;99.90;;;;;;4979421;28;20034;-83
2022/11/28 11:25:53;;;;;;;10.25;6.25;;;4.10;99.90;;;;;;4969767;28;20042;-83
2022/11/28 11:28:25;;;;;;;12.65;6.05;;;4.10;99.90;;;;;;4947978;28;20039;-84
2022/11/28 11:30:58;;;;;;;12.38;6.35;;;4.20;99.90;;;;;;4964043;28;20061;-84
2022/11/28 11:33:32;;;;;;;9.98;5.88;;;4.20;99.90;;;;;;4980193;28;20046;-84
2022/11/28 11:35:58;;;;;;;10.15;6.38;;;4.20;99.90;;;;;;4973299;28;20030;-84
2022/11/28 11:38:24;;;;;;;10.20;6.25;;;4.20;99.90;;;;;;4973884;28;20153;-83
2022/11/28 11:40:50;;;;;;;13.88;6.70;;;4.20;99.90;;;;;;4985988;28;20807;-84
2022/11/28 11:43:26;;;;;;;10.40;6.68;;;4.20;99.90;;;;;;4971948;28;20066;-83
2022/11/28 11:46:13;;;;;;;10.73;6.57;;;4.20;99.90;;;;;;5002011;28;20406;-83
2022/11/28 11:48:42;;;;;;;11.90;7.00;;;4.30;99.90;;;;;;4986274;28;20046;-84
2022/11/28 11:51:24;;;;;;;12.55;5.88;;;4.40;99.90;;;;;;4960681;28;20062;-83
2022/11/28 11:54:13;;;;;;;9.20;5.90;;;4.40;99.90;;;;;;4974477;28;20064;-83
2022/11/28 11:56:42;;;;;;;10.88;6.22;;;4.40;99.90;;;;;;4970613;28;20100;-84
2022/11/28 11:59:20;;;;;;;10.68;6.38;;;4.40;99.90;;;;;;4986449;28;20072;-83
2022/11/28 12:01:51;;;;;;;9.02;6.20;;;4.40;99.90;;;;;;4986013;28;20062;-84
2022/11/28 12:04:39;;;;;;;9.13;6.00;;;4.40;99.90;;;;;;4966972;28;20484;-83
2022/11/28 12:07:16;;;;;;;12.38;7.28;;;4.50;99.90;;;;;;4984106;28;20061;-84
2022/11/28 12:09:46;;;;;;;10.15;5.97;;;4.50;99.90;;;;;;5002018;28;20038;-85
2022/11/28 12:12:23;;;;;;;11.10;6.72;;;4.50;99.90;;;;;;4968453;28;20049;-84
2022/11/28 12:14:49;;;;;;;9.85;6.00;;;4.50;99.90;;;;;;4972883;28;20121;-84
2022/11/28 12:17:52;;;;;;;12.00;6.97;;;4.50;99.90;;;;;;4952538;28;20041;-84
2022/11/28 12:20:57;;;;;;;12.05;6.43;;;4.50;99.90;;;;;;4971653;28;20491;-84
2022/11/28 12:23:39;;;;;;;8.82;5.82;;;4.50;99.90;;;;;;5002194;28;20471;-84
2022/11/28 12:26:14;;;;;;;9.75;6.72;;;4.60;99.90;;;;;;4969965;28;20041;-84
2022/11/28 12:29:00;;;;;;;12.75;6.55;;;4.60;99.90;;;;;;4988281;28;20153;-84
2022/11/28 12:31:59;;;;;;;11.45;6.25;;;4.60;99.90;;;;;;4977172;28;20030;-83
2022/11/28 12:34:48;;;;;;;11.13;6.72;;;4.60;99.90;;;;;;4981107;28;20066;-84
2022/11/28 12:37:46;;;;;;;12.40;7.72;;;4.60;99.90;;;;;;4996148;28;20607;-84
2022/11/28 12:40:30;;;;;;;11.32;6.57;;;4.70;99.90;;;;;;4984666;28;20035;-84
2022/11/28 12:43:19;;;;;;;9.65;6.57;;;4.60;99.90;;;;;;4962178;28;20118;-84
2022/11/28 12:45:58;;;;;;;13.25;7.85;;;4.60;99.90;;;;;;4969871;28;20486;-84
2022/11/28 12:48:45;;;;;;;12.15;7.20;;;4.70;99.90;;;;;;4970754;28;20104;-84
2022/11/28 12:51:32;;;;;;;11.45;7.03;;;4.70;99.90;;;;;;4989456;28;20049;-83
2022/11/28 12:54:24;;;;;;;11.10;6.68;;;4.60;99.90;;;;;;4990822;28;20043;-84
2022/11/28 12:57:13;;;;;;;12.63;6.88;;;4.60;99.90;;;;;;4999637;28;20074;-85
2022/11/28 12:59:49;;;;;;;12.25;6.70;;;4.60;99.90;;;;;;4982376;28;20450;-84
2022/11/28 13:02:34;;;;;;;14.30;6.85;;;4.60;99.90;;;;;;4989034;28;20386;-83
2022/11/28 13:05:21;;;;;;;10.85;7.03;;;4.50;99.90;;;;;;4954662;28;20031;-83
2022/11/28 13:08:22;;;;;;;11.43;6.65;;;4.50;99.90;;;;;;4972900;28;20666;-84
2022/11/28 13:11:19;;;;;;;10.40;6.63;;;4.50;99.90;;;;;;4961761;28;20053;-85
2022/11/28 13:14:08;;;;;;;11.38;6.40;;;4.60;99.90;;;;;;4969254;28;20035;-84
2022/11/28 13:16:53;;;;;;;12.23;7.70;;;4.50;99.90;;;;;;4984228;28;20468;-84